FLIGHT DETAILS
Pilot: CFR08DC DAVID Christian Aircraft: AIRBUSA350V1.43 AIR FRANCE Distance: 472NM
Departure FMMI Arrival FMEE Duration 1.21
Validation Validated Type Regular Tail Number F-CFR107
ZFW 168215 Block Fuel/Initial FOB 7,916/0 Flight Fuel 7,023
Passengers 321 Cargo 9500 Alternate FIMP
Departure Time 1000 Cruise Speed Flight Level
Flight Type IFR Aircraft Type A359 Weight Unit Kg
Date 2019-01-26 Pilot Comments Network OFFLINE
Crashed No Validator Comments Flight Rating 100

 ROUTE
ROUTE TE UA401 UNKIK
REMARKS
 FLIGHT FAILURES
Crashed OK Beacon off & Engine Running OK KIAS Above 250 below 10000 FT OK
Lights OFF below 10000 FT Fail Lights ON above 10000 FT OK Stall OK
Overspeed OK Flight paused OK Refueling OK
Slew detected OK Taxi & Taxi lights off OK Take off & lights off OK
Landing & lights off OK Landed in not planned airport OK Taxi Speed OK
Wrong altimeter in Take off Fail Wrong altimeter in Landing OK
 LANDING ANALYSIS
Landing wind 17º/0 kt Landing heading 216
Landing VS: -288.36 ft/min Landing IAS: 147.45 kt
Landing Force G 1.2 G Landing Bank 0.1
Landing Pitch 0.9 Landing Flaps 37
Navigation Lights ON Landing Lights ON
Beacon Lights ON Strobe Lights ON
 FLIGHT MAP
 ALTITUDE CHART
 FLIGHT FINANCIAL REPORT
Cargo:9500 .Price per Cargo Unit:100 950,000.00
Number of PAX:321 .Price per PAX:250 80,250.00
TOTAL 1,030,250.00
 MAIN EVENTS
DATE EVENTIASALTITUDE
2019-01-26 20:24:43 SIM ACARS version 1.4.104167
2019-01-26 20:24:43 BOARDING04167
2019-01-26 20:24:43 FLAPS EXTENSION 37 % 04167
2019-01-26 20:24:43 STARTING ENGINE 1 04167
2019-01-26 20:24:43 STARTING ENGINE 2 04167
2019-01-26 20:24:44 FLAPS EXTENSION 38 % 04167
2019-01-26 20:24:45 FLAPS EXTENSION 37 % 04167
2019-01-26 20:25:10 TAXI TO THE RWY 94167
2019-01-26 20:26:27 FLAPS EXTENSION 38 % 164167
2019-01-26 20:26:28 FLAPS EXTENSION 37 % 164167
2019-01-26 20:26:28 FLAPS EXTENSION 38 % 174167
2019-01-26 20:26:28 FLAPS EXTENSION 37 % 174167
2019-01-26 20:26:47 FLAPS EXTENSION 38 % 314167
2019-01-26 20:26:48 FLAPS EXTENSION 37 % 314167
2019-01-26 20:26:55 FLAPS EXTENSION 38 % 304167
2019-01-26 20:26:55 FLAPS EXTENSION 37 % 304167
2019-01-26 20:26:59 FLAPS EXTENSION 38 % 304167
2019-01-26 20:26:59 FLAPS EXTENSION 37 % 304167
2019-01-26 20:27:07 FLAPS EXTENSION 38 % 294167
2019-01-26 20:27:08 FLAPS EXTENSION 37 % 294167
2019-01-26 20:27:14 FLAPS EXTENSION 38 % 294167
2019-01-26 20:27:15 FLAPS EXTENSION 37 % 294167
2019-01-26 20:27:15 FLAPS EXTENSION 38 % 294167
2019-01-26 20:27:15 FLAPS EXTENSION 37 % 284167
2019-01-26 20:27:25 FLAPS EXTENSION 38 % 134167
2019-01-26 20:27:25 FLAPS EXTENSION 37 % 134167
2019-01-26 20:27:26 FLAPS EXTENSION 38 % 134167
2019-01-26 20:27:26 FLAPS EXTENSION 37 % 134167
2019-01-26 20:27:31 FLAPS EXTENSION 38 % 134167
2019-01-26 20:27:31 FLAPS EXTENSION 37 % 134167
2019-01-26 20:27:31 FLAPS EXTENSION 38 % 134167
2019-01-26 20:27:31 FLAPS EXTENSION 37 % 134167
2019-01-26 20:27:34 FLAPS EXTENSION 38 % 134167
2019-01-26 20:27:35 FLAPS EXTENSION 37 % 134167
2019-01-26 20:27:37 FLAPS EXTENSION 38 % 134167
2019-01-26 20:27:38 FLAPS EXTENSION 37 % 124167
2019-01-26 20:27:41 FLAPS EXTENSION 38 % 124167
2019-01-26 20:27:42 FLAPS EXTENSION 37 % 124167
2019-01-26 20:27:45 FLAPS EXTENSION 38 % 124167
2019-01-26 20:27:45 FLAPS EXTENSION 37 % 124167
2019-01-26 20:28:00 FLAPS EXTENSION 38 % 114167
2019-01-26 20:28:00 FLAPS EXTENSION 37 % 114167
2019-01-26 20:28:11 FLAPS EXTENSION 38 % 104167
2019-01-26 20:28:11 FLAPS EXTENSION 37 % 84167
2019-01-26 20:28:12 FLAPS EXTENSION 38 % 74167
2019-01-26 20:28:12 FLAPS EXTENSION 37 % 54167
2019-01-26 20:28:17 FLAPS EXTENSION 38 % 34167
2019-01-26 20:28:17 FLAPS EXTENSION 37 % 44167
2019-01-26 20:28:21 FLAPS EXTENSION 38 % 44167
2019-01-26 20:28:21 FLAPS EXTENSION 37 % 44167
2019-01-26 20:28:21 FLAPS EXTENSION 38 % 44167
2019-01-26 20:28:21 FLAPS EXTENSION 37 % 44167
2019-01-26 20:28:22 FLAPS EXTENSION 38 % 44167
2019-01-26 20:28:23 FLAPS EXTENSION 37 % 44167
2019-01-26 20:28:30 FLAPS EXTENSION 38 % 44167
2019-01-26 20:28:30 FLAPS EXTENSION 37 % 44167
2019-01-26 20:28:31 FLAPS EXTENSION 38 % 44167
2019-01-26 20:28:31 FLAPS EXTENSION 37 % 44167
2019-01-26 20:28:36 FLAPS EXTENSION 38 % 44167
2019-01-26 20:28:37 FLAPS EXTENSION 37 % 44167
2019-01-26 20:28:40 FLAPS EXTENSION 38 % 54167
2019-01-26 20:28:40 FLAPS EXTENSION 37 % 54167
2019-01-26 20:28:48 FLAPS EXTENSION 38 % 24167
2019-01-26 20:28:48 FLAPS EXTENSION 37 % 24167
2019-01-26 20:28:59 FLAPS EXTENSION 38 % 04167
2019-01-26 20:28:59 FLAPS EXTENSION 37 % 04167
2019-01-26 20:28:59 FLAPS EXTENSION 38 % 04167
2019-01-26 20:28:59 FLAPS EXTENSION 37 % 04167
2019-01-26 20:29:04 FLAPS EXTENSION 38 % 04167
2019-01-26 20:29:04 FLAPS EXTENSION 37 % 04167
2019-01-26 20:29:07 FLAPS EXTENSION 38 % 04167
2019-01-26 20:29:07 FLAPS EXTENSION 37 % 04167
2019-01-26 20:29:17 FLAPS EXTENSION 38 % 04167
2019-01-26 20:29:17 FLAPS EXTENSION 37 % 04167
2019-01-26 20:29:33 ROLLING FOR TAKE OFF384167
2019-01-26 20:29:44 FLAPS EXTENSION 38 % 824167
2019-01-26 20:29:44 FLAPS EXTENSION 37 % 824167
2019-01-26 20:29:47 FLAPS EXTENSION 38 % 944167
2019-01-26 20:29:47 FLAPS EXTENSION 37 % 944167
2019-01-26 20:30:04 TAKE OFF1534169
2019-01-26 20:30:07 GEAR UP1614193
2019-01-26 20:30:07 GEAR DOWN1624199
2019-01-26 20:30:09 GEAR UP1654246
2019-01-26 20:30:15 FLAPS EXTENSION 38 % 1664497
2019-01-26 20:30:15 FLAPS EXTENSION 37 % 1664504
2019-01-26 20:30:22 FLAPS EXTENSION 38 % 1594906
2019-01-26 20:30:22 FLAPS EXTENSION 37 % 1584920
2019-01-26 20:30:29 FLAPS EXTENSION 38 % 1425315
2019-01-26 20:30:29 FLAPS EXTENSION 37 % 1415340
2019-01-26 20:30:41 FLAPS EXTENSION 38 % 1165862
2019-01-26 20:30:41 FLAPS EXTENSION 37 % 1165863
2019-01-26 20:30:46 FLAPS EXTENSION 38 % 1215842
2019-01-26 20:30:46 FLAPS EXTENSION 37 % 1215840
2019-01-26 20:30:57 FLAPS EXTENSION 38 % 1475699
2019-01-26 20:30:57 FLAPS EXTENSION 37 % 1475701
2019-01-26 20:31:07 FLAPS EXTENSION 38 % 1346117
2019-01-26 20:31:07 FLAPS EXTENSION 37 % 1346122
2019-01-26 20:31:09 FLAPS EXTENSION 38 % 1316199
2019-01-26 20:31:09 FLAPS EXTENSION 37 % 1316204
2019-01-26 20:31:18 FLAPS EXTENSION 38 % 1236441
2019-01-26 20:31:18 FLAPS EXTENSION 37 % 1246442
2019-01-26 20:31:23 FLAPS EXTENSION 29 % 1306440
2019-01-26 20:31:23 FLAPS EXTENSION 10 % 1306440
2019-01-26 20:31:23 FLAPS EXTENSION 0 % 1306440
2019-01-26 20:33:54 CRUISE24710161
2019-01-26 20:34:34 DESCEND2319820
2019-01-26 20:34:58 LIGHTS OFF BELOW 10000 ft2269499
2019-01-26 20:35:54 CLIMBING25110056
2019-01-26 20:48:54 CRUISE29131003
2019-01-26 21:06:54 DESCEND29130986
2019-01-26 21:07:24 CRUISE29130989
2019-01-26 21:22:24 DESCEND22830888
2019-01-26 21:39:04 CRUISE2353006
2019-01-26 21:39:05 FLAPS EXTENSION 11 % 2343005
2019-01-26 21:39:05 FLAPS EXTENSION 21 % 2343005
2019-01-26 21:39:05 FLAPS EXTENSION 27 % 2343005
2019-01-26 21:39:05 FLAPS EXTENSION 29 % 2343005
2019-01-26 21:39:11 FLAPS EXTENSION 31 % 2293002
2019-01-26 21:39:11 FLAPS EXTENSION 35 % 2293002
2019-01-26 21:39:12 FLAPS EXTENSION 43 % 2293001
2019-01-26 21:39:12 FLAPS EXTENSION 44 % 2293001
2019-01-26 21:39:12 FLAPS EXTENSION 46 % 2293001
2019-01-26 21:39:12 FLAPS EXTENSION 49 % 2283001
2019-01-26 21:39:12 FLAPS EXTENSION 50 % 2283001
2019-01-26 21:39:13 FLAPS EXTENSION 45 % 2283001
2019-01-26 21:39:13 FLAPS EXTENSION 42 % 2283001
2019-01-26 21:39:13 FLAPS EXTENSION 38 % 2283002
2019-01-26 21:39:13 FLAPS EXTENSION 32 % 2283002
2019-01-26 21:39:13 FLAPS EXTENSION 20 % 2283002
2019-01-26 21:39:13 FLAPS EXTENSION 17 % 2273002
2019-01-26 21:39:13 FLAPS EXTENSION 15 % 2273002
2019-01-26 21:39:14 FLAPS EXTENSION 16 % 2273002
2019-01-26 21:39:14 FLAPS EXTENSION 17 % 2273002
2019-01-26 21:39:14 FLAPS EXTENSION 18 % 2273002
2019-01-26 21:39:17 FLAPS EXTENSION 20 % 2253000
2019-01-26 21:39:17 FLAPS EXTENSION 21 % 2253000
2019-01-26 21:39:17 FLAPS EXTENSION 22 % 2253000
2019-01-26 21:39:17 FLAPS EXTENSION 28 % 2253000
2019-01-26 21:39:17 FLAPS EXTENSION 29 % 2253000
2019-01-26 21:39:17 FLAPS EXTENSION 31 % 2243000
2019-01-26 21:39:17 FLAPS EXTENSION 32 % 2243000
2019-01-26 21:39:19 FLAPS EXTENSION 33 % 2232999
2019-01-26 21:39:50 FLAPS EXTENSION 35 % 2102997
2019-01-26 21:39:50 FLAPS EXTENSION 41 % 2102997
2019-01-26 21:39:50 FLAPS EXTENSION 51 % 2102997
2019-01-26 21:39:50 FLAPS EXTENSION 54 % 2102997
2019-01-26 21:39:51 FLAPS EXTENSION 53 % 2092997
2019-01-26 21:39:52 FLAPS EXTENSION 52 % 2092997
2019-01-26 21:40:58 FLAPS EXTENSION 53 % 1832994
2019-01-26 21:40:58 FLAPS EXTENSION 56 % 1832994
2019-01-26 21:40:58 FLAPS EXTENSION 60 % 1832994
2019-01-26 21:40:58 FLAPS EXTENSION 62 % 1832994
2019-01-26 21:40:58 FLAPS EXTENSION 68 % 1832994
2019-01-26 21:40:58 FLAPS EXTENSION 71 % 1832994
2019-01-26 21:40:58 FLAPS EXTENSION 72 % 1832994
2019-01-26 21:41:24 FLAPS EXTENSION 86 % 1713001
2019-01-26 21:41:24 FLAPS EXTENSION 100 % 1713001
2019-01-26 21:41:54 DESCEND1712532
2019-01-26 21:42:01 GEAR DOWN1672415
2019-01-26 21:44:56 LANDING14777
2019-01-26 21:45:33 TAXI TO THE GATE2076
2019-01-26 21:46:23 FLAPS EXTENSION 92 % 176
2019-01-26 21:46:23 FLAPS EXTENSION 68 % 176
2019-01-26 21:46:23 FLAPS EXTENSION 38 % 176
2019-01-26 21:46:24 FLAPS EXTENSION 9 % 176
2019-01-26 21:46:24 FLAPS EXTENSION 0 % 176
2019-01-26 21:52:48 STOPPING ENGINE 1 076
2019-01-26 21:52:49 STOPPING ENGINE 2 076
 ACARS DATA
DATE IASGSALTITUDEFUEL CONSUMED OATFLIGHT STATUS
2019-01-26 20:25:4312124166596TAXI TO THE RWY
2019-01-26 20:26:43283141661486TAXI TO THE RWY
2019-01-26 20:27:43121241661886TAXI TO THE RWY
2019-01-26 20:28:436641662296TAXI TO THE RWY
2019-01-26 20:29:43768541673896TAXI TO THE RWY
2019-01-26 20:30:4311612958687323CLIMBING
2019-01-26 20:31:43156176675810401CLIMBING
2019-01-26 20:32:4321724885851378-1CLIMBING
2019-01-26 20:33:43255294101561623-5CLIMBING
2019-01-26 20:34:4323026596651640-4DESCEND
2019-01-26 20:35:4325128894021743-3DESCEND
2019-01-26 20:36:43286339116212015-8CLIMBING
2019-01-26 20:37:43290354137722225-12CLIMBING
2019-01-26 20:38:43290365158802423-16CLIMBING
2019-01-26 20:39:43290375178392608-20CLIMBING
2019-01-26 20:40:43290386197022786-23CLIMBING
2019-01-26 20:41:43290397214702959-27CLIMBING
2019-01-26 20:42:43290407231353125-30CLIMBING
2019-01-26 20:43:43292419246393286-33CLIMBING
2019-01-26 20:44:43291426261703437-36CLIMBING
2019-01-26 20:45:43290436275843587-39CLIMBING
2019-01-26 20:46:43290445289093731-42CLIMBING
2019-01-26 20:47:43290453301673872-44CLIMBING
2019-01-26 20:48:43290459309973993-46CLIMBING
2019-01-26 20:49:43290459310054077-46CRUISE
2019-01-26 20:50:43290459310054162-46CRUISE
2019-01-26 20:51:43290458309474242-46CRUISE
2019-01-26 20:52:43290459310054332-46CRUISE
2019-01-26 20:53:43290459310054419-46CRUISE
2019-01-26 20:54:43290459310054506-46CRUISE
2019-01-26 20:55:43290459310054594-46CRUISE
2019-01-26 20:56:43290459310054682-46CRUISE
2019-01-26 20:57:43290459310054769-46CRUISE
2019-01-26 20:58:43290459310054856-46CRUISE
2019-01-26 20:59:43290459309904942-46CRUISE
2019-01-26 21:00:43290459310055029-46CRUISE
2019-01-26 21:01:43290459310055116-46CRUISE
2019-01-26 21:02:43290459310055203-46CRUISE
2019-01-26 21:03:43290459310055290-46CRUISE
2019-01-26 21:04:43290459310055377-46CRUISE
2019-01-26 21:05:43290459310055465-46CRUISE
2019-01-26 21:06:43290459310055552-46CRUISE
2019-01-26 21:07:43290459310025637-46CRUISE
2019-01-26 21:08:43290459310055724-46CRUISE
2019-01-26 21:09:43290459310055812-46CRUISE
2019-01-26 21:10:43290459310055900-46CRUISE
2019-01-26 21:11:43290459310055988-46CRUISE
2019-01-26 21:12:43290459309836074-46CRUISE
2019-01-26 21:13:43290459310056161-46CRUISE
2019-01-26 21:14:43290458309346245-46CRUISE
2019-01-26 21:15:43290459310046333-46CRUISE
2019-01-26 21:16:43290459310056422-46CRUISE
2019-01-26 21:17:43290459310056508-46CRUISE
2019-01-26 21:18:43290459310056595-46CRUISE
2019-01-26 21:19:43290459310056682-46CRUISE
2019-01-26 21:20:43286452310046758-46CRUISE
2019-01-26 21:21:43251400309106769-46CRUISE
2019-01-26 21:22:43222356306656780-45DESCEND
2019-01-26 21:23:43215340295566791-43DESCEND
2019-01-26 21:24:43219338280606803-40DESCEND
2019-01-26 21:25:43250366254766819-35DESCEND
2019-01-26 21:26:43250358240356837-32DESCEND
2019-01-26 21:27:43250350226206856-29DESCEND
2019-01-26 21:28:43260354208526875-26DESCEND
2019-01-26 21:29:43275362188756893-22DESCEND
2019-01-26 21:30:43284363168956911-18DESCEND
2019-01-26 21:31:43284350144766929-13DESCEND
2019-01-26 21:32:43290341114296949-7DESCEND
2019-01-26 21:33:43250288100136968-4DESCEND
2019-01-26 21:34:4323927699787034-4DESCEND
2019-01-26 21:35:4325028385397049-1DESCEND
2019-01-26 21:36:43249273651470732DESCEND
2019-01-26 21:37:43250265409270936DESCEND
2019-01-26 21:38:43248259306071138DESCEND
2019-01-26 21:39:43215224299871519CRUISE
2019-01-26 21:40:43190199300272339CRUISE
2019-01-26 21:41:43171178277673249CRUISE
2019-01-26 21:42:431611651814738411DESCEND
2019-01-26 21:43:43156158970746413DESCEND
2019-01-26 21:44:43156157134755114DESCEND
2019-01-26 21:45:43151675758614TAXI TO THE GATE
2019-01-26 21:46:434475763014TAXI TO THE GATE
2019-01-26 21:47:43131375768714TAXI TO THE GATE
2019-01-26 21:48:43111175772614TAXI TO THE GATE
2019-01-26 21:49:43131375777014TAXI TO THE GATE
2019-01-26 21:50:438875781914TAXI TO THE GATE
2019-01-26 21:51:430075787214TAXI TO THE GATE
2019-01-26 21:52:430075791314TAXI TO THE GATE
2019-01-26 21:53:430075791714TAXI TO THE GATE
2019-01-26 21:54:430075791814TAXI TO THE GATE


Powered by Virtual Airlines Manager [v2.6.2]